createdAt,value
2022-09-01T00:00:14.879Z,16.40
2022-09-01T00:10:20.274Z,16.30
2022-09-01T00:20:24.004Z,16.10
2022-09-01T00:30:29.192Z,16.00
2022-09-01T00:40:33.176Z,15.90
2022-09-01T00:50:39.149Z,15.80
2022-09-01T01:00:43.009Z,15.60
2022-09-01T01:10:48.254Z,15.60
2022-09-01T01:21:19.987Z,15.60
2022-09-01T01:31:25.605Z,15.70
2022-09-01T01:41:32.062Z,15.80
2022-09-01T01:51:37.329Z,15.70
2022-09-01T02:01:42.809Z,15.60
2022-09-01T02:11:48.131Z,15.50
2022-09-01T02:21:56.197Z,15.50
2022-09-01T02:32:01.890Z,15.40
2022-09-01T02:42:08.376Z,15.10
2022-09-01T02:52:15.849Z,15.10
2022-09-01T03:02:19.548Z,15.10
2022-09-01T03:12:24.839Z,15.10
2022-09-01T03:22:29.526Z,15.00
2022-09-01T03:32:37.525Z,15.00
2022-09-01T03:42:41.617Z,14.70
2022-09-01T03:52:47.853Z,14.70
2022-09-01T04:02:57.504Z,14.60
2022-09-01T04:13:03.089Z,14.40
2022-09-01T04:23:10.900Z,14.40
2022-09-01T04:33:17.390Z,14.40
2022-09-01T04:43:21.099Z,14.40
2022-09-01T04:53:28.547Z,14.30
2022-09-01T05:03:32.360Z,14.20
2022-09-01T05:13:38.919Z,14.20
2022-09-01T05:23:42.950Z,14.20
2022-09-01T05:33:50.860Z,14.20
2022-09-01T05:44:00.657Z,14.20
2022-09-01T05:54:09.248Z,14.30
2022-09-01T06:04:13.716Z,14.50
2022-09-01T06:14:19.638Z,14.90
2022-09-01T06:24:23.538Z,15.20
2022-09-01T06:34:30.961Z,15.30
2022-09-01T06:44:40.749Z,15.60
2022-09-01T06:54:46.041Z,15.80
2022-09-01T07:04:49.943Z,16.00
2022-09-01T07:25:20.331Z,16.70
2022-09-01T07:35:26.421Z,17.00
2022-09-01T07:45:30.688Z,17.30
2022-09-01T07:55:35.799Z,16.40
2022-09-01T08:05:41.103Z,18.00
2022-09-01T08:26:14.994Z,18.90
2022-09-01T08:36:23.971Z,19.30
2022-09-01T08:46:35.177Z,19.80
2022-09-01T08:56:41.857Z,20.10
2022-09-01T09:06:59.162Z,20.40
2022-09-01T09:17:05.125Z,20.30
2022-09-01T09:27:11.825Z,20.40
2022-09-01T09:37:30.522Z,20.40
2022-09-01T09:47:45.064Z,21.20
2022-09-01T09:57:52.500Z,21.50
2022-09-01T10:07:58.280Z,21.70
2022-09-01T10:18:20.743Z,21.90
2022-09-01T10:28:26.825Z,22.30
2022-09-01T10:38:32.336Z,22.20
2022-09-01T10:48:48.559Z,22.60
2022-09-01T11:09:36.317Z,22.60
2022-09-01T11:19:48.233Z,23.50
2022-09-01T11:29:55.608Z,24.00
2022-09-01T11:40:03.767Z,24.30
2022-09-01T11:50:19.973Z,24.60
2022-09-01T12:00:31.235Z,23.70
2022-09-01T12:10:38.709Z,23.80
2022-09-01T12:20:43.978Z,23.70
2022-09-01T12:30:47.881Z,23.80
2022-09-01T12:40:56.728Z,24.00
2022-09-01T12:51:02.528Z,24.00
2022-09-01T13:01:16.174Z,24.10
2022-09-01T13:11:21.804Z,24.70
2022-09-01T13:21:27.509Z,25.20
2022-09-01T13:31:32.203Z,25.30
2022-09-01T13:41:40.384Z,25.30
2022-09-01T13:51:44.173Z,25.20
2022-09-01T14:01:50.080Z,24.60
2022-09-01T14:11:54.681Z,25.20
2022-09-01T14:21:59.966Z,25.60
2022-09-01T14:32:04.374Z,25.90
2022-09-01T14:42:10.028Z,25.90
2022-09-01T14:52:14.319Z,25.90
2022-09-01T15:02:19.539Z,25.20
2022-09-01T15:12:24.814Z,25.30
2022-09-01T15:22:30.125Z,25.50
2022-09-01T15:32:33.870Z,25.80
2022-09-01T15:42:41.812Z,25.30
2022-09-01T15:52:52.088Z,25.20
2022-09-01T16:03:01.572Z,25.80
2022-09-01T16:13:05.818Z,25.90
2022-09-01T16:23:17.209Z,25.50
2022-09-01T16:33:23.884Z,25.30
2022-09-01T16:43:42.670Z,25.90
2022-09-01T16:54:02.738Z,25.60
2022-09-01T17:04:24.343Z,25.60
2022-09-01T17:14:41.024Z,25.40
2022-09-01T17:24:50.520Z,24.90
2022-09-01T17:35:02.995Z,24.70
2022-09-01T17:45:21.291Z,25.50
2022-09-01T17:55:43.544Z,25.00
2022-09-01T18:06:01.375Z,24.00
2022-09-01T18:16:12.622Z,23.20
2022-09-01T18:26:27.170Z,22.80
2022-09-01T18:36:41.094Z,22.40
2022-09-01T18:46:55.204Z,22.00
2022-09-01T18:57:04.640Z,21.40
2022-09-01T19:07:23.322Z,21.20
2022-09-01T19:17:51.115Z,21.00
2022-09-01T19:28:04.404Z,20.70
2022-09-01T19:38:09.829Z,19.90
2022-09-01T19:48:20.216Z,20.00
2022-09-01T19:58:29.121Z,20.20
2022-09-01T20:08:43.049Z,20.20
2022-09-01T20:18:54.070Z,20.10
2022-09-01T20:29:04.884Z,20.00
2022-09-01T20:39:36.275Z,19.80
2022-09-01T20:49:41.934Z,19.70
2022-09-01T20:59:50.058Z,19.70
2022-09-01T21:10:06.769Z,19.70
2022-09-01T21:20:21.986Z,19.80
2022-09-01T21:30:31.352Z,19.60
2022-09-01T21:40:35.378Z,19.40
2022-09-01T21:50:41.389Z,19.40
2022-09-01T22:00:45.147Z,19.40
2022-09-01T22:10:53.488Z,19.40
2022-09-01T22:21:03.716Z,19.10
2022-09-01T22:31:13.864Z,19.00
2022-09-01T22:41:20.900Z,18.90
2022-09-01T22:51:27.015Z,18.70
2022-09-01T23:01:33.753Z,17.90
2022-09-01T23:11:39.177Z,18.50
2022-09-01T23:21:42.914Z,18.30
2022-09-01T23:31:49.025Z,18.20
2022-09-01T23:41:52.817Z,18.10
2022-09-01T23:51:57.903Z,18.10
